createdAt,value
2016-12-03T00:00:37.167Z,45.4
2016-12-03T00:01:37.561Z,45.3
2016-12-03T00:02:37.950Z,44.7
2016-12-03T00:03:38.333Z,45.3
2016-12-03T00:04:38.725Z,45.3
2016-12-03T00:05:39.117Z,45.2
2016-12-03T00:06:39.520Z,45.1
2016-12-03T00:07:39.917Z,44.9
2016-12-03T00:08:40.301Z,45
2016-12-03T00:09:40.696Z,45
2016-12-03T00:10:41.093Z,44.8
2016-12-03T00:11:41.495Z,44.7
2016-12-03T00:12:41.896Z,45
2016-12-03T00:13:42.289Z,44.8
2016-12-03T00:14:42.671Z,44.9
2016-12-03T00:15:43.057Z,44.7
2016-12-03T00:16:43.446Z,44.9
2016-12-03T00:17:43.840Z,45.1
2016-12-03T00:18:44.249Z,44.7
2016-12-03T00:19:44.655Z,45.3
2016-12-03T00:20:45.060Z,45.4
2016-12-03T00:21:45.451Z,45.3
2016-12-03T00:22:45.867Z,45
2016-12-03T00:23:46.253Z,45
2016-12-03T00:24:46.647Z,45.3
2016-12-03T00:25:47.049Z,44.9
2016-12-03T00:26:47.454Z,45.1
2016-12-03T00:27:47.853Z,45.1
2016-12-03T00:28:48.249Z,44.9
2016-12-03T00:29:48.643Z,44.9
2016-12-03T00:30:49.035Z,44.8
2016-12-03T00:31:49.423Z,44.9
2016-12-03T00:32:49.809Z,45.1
2016-12-03T00:33:50.206Z,44.8
2016-12-03T00:34:50.609Z,45.1
2016-12-03T00:35:51.016Z,44.9
2016-12-03T00:36:51.420Z,44.9
2016-12-03T00:37:51.811Z,44.9
2016-12-03T00:38:52.197Z,44.9
2016-12-03T00:39:52.592Z,45.3
2016-12-03T00:40:52.988Z,44.9
2016-12-03T00:41:53.387Z,45.5
2016-12-03T00:42:53.776Z,45.3
2016-12-03T00:43:54.167Z,45.1
2016-12-03T00:44:54.564Z,45.2
2016-12-03T00:45:54.957Z,45
2016-12-03T00:46:55.360Z,45
2016-12-03T00:47:55.796Z,45.3
2016-12-03T00:48:56.206Z,44.8
2016-12-03T00:49:56.600Z,44.8
2016-12-03T00:50:56.983Z,44.9
2016-12-03T00:51:57.380Z,44.8
2016-12-03T00:52:57.770Z,44.8
2016-12-03T00:53:58.166Z,45
2016-12-03T00:54:58.578Z,44.9
2016-12-03T00:55:58.975Z,45
2016-12-03T00:56:59.367Z,45
2016-12-03T00:57:59.759Z,44.8
2016-12-03T00:59:00.152Z,45.2
2016-12-03T01:00:00.541Z,44.8
2016-12-03T01:01:00.934Z,45.4
2016-12-03T01:02:01.322Z,45.3
2016-12-03T01:03:01.716Z,45.3
2016-12-03T01:04:02.118Z,45.4
2016-12-03T01:05:02.521Z,45.5
2016-12-03T01:06:02.910Z,45.5
2016-12-03T01:07:03.294Z,45.1
2016-12-03T01:08:03.681Z,45.3
2016-12-03T01:09:04.064Z,44.9
2016-12-03T01:10:04.467Z,45.3
2016-12-03T01:11:05.224Z,45.1
2016-12-03T01:12:05.619Z,44.8
2016-12-03T01:13:06.008Z,44.8
2016-12-03T01:14:06.407Z,44.9
2016-12-03T01:15:06.820Z,44.7
2016-12-03T01:16:07.215Z,45
2016-12-03T01:17:07.611Z,45.1
2016-12-03T01:18:08.005Z,45.1
2016-12-03T01:19:08.396Z,44.7
2016-12-03T01:20:08.788Z,45.1
2016-12-03T01:21:09.178Z,45.1
2016-12-03T01:22:09.575Z,45
2016-12-03T01:23:09.969Z,45
2016-12-03T01:24:10.380Z,45.1
2016-12-03T01:25:10.777Z,45
2016-12-03T01:26:11.171Z,44.8
2016-12-03T01:27:11.567Z,44.8
2016-12-03T01:28:11.955Z,44.8
2016-12-03T01:29:12.336Z,45.1
2016-12-03T01:30:12.726Z,45.4
2016-12-03T01:31:13.125Z,45.3
2016-12-03T01:32:13.524Z,44.6
2016-12-03T01:33:13.928Z,44.5
2016-12-03T01:34:14.327Z,45
2016-12-03T01:35:14.716Z,44.7
2016-12-03T01:36:15.448Z,45
2016-12-03T01:37:15.839Z,44.8
2016-12-03T01:38:16.236Z,44.9
2016-12-03T01:39:16.630Z,44.9
2016-12-03T01:40:17.028Z,45.1
2016-12-03T01:41:17.428Z,45.1
2016-12-03T01:42:17.830Z,44.8
2016-12-03T01:43:18.213Z,45.1
2016-12-03T01:44:18.609Z,45.1
2016-12-03T01:45:19.007Z,44.9
2016-12-03T01:46:19.392Z,45.1
2016-12-03T01:47:19.786Z,44.4
2016-12-03T01:48:20.176Z,44.6
2016-12-03T01:49:20.564Z,44.8
2016-12-03T01:50:20.969Z,44.6
2016-12-03T01:51:21.365Z,44.8
2016-12-03T01:52:21.759Z,45.1
2016-12-03T01:53:22.164Z,45.1
2016-12-03T01:54:22.574Z,44.9
2016-12-03T01:55:22.961Z,45
2016-12-03T01:56:23.344Z,44.7
2016-12-03T01:57:23.725Z,45.1
2016-12-03T01:58:24.117Z,45.3
2016-12-03T01:59:24.519Z,44.7
2016-12-03T02:00:24.921Z,44.8
2016-12-03T02:01:25.315Z,44.8
2016-12-03T02:02:25.709Z,45.1
2016-12-03T02:03:26.103Z,45
2016-12-03T02:04:26.485Z,45.1
2016-12-03T02:05:26.879Z,44.8
2016-12-03T02:06:27.288Z,44.8
2016-12-03T02:07:27.688Z,45.2
2016-12-03T02:08:28.091Z,45.3
2016-12-03T02:09:28.499Z,44.8
2016-12-03T02:10:28.899Z,44.8
2016-12-03T02:11:29.283Z,45
2016-12-03T02:12:29.674Z,44.8
2016-12-03T02:13:30.065Z,44.8
2016-12-03T02:14:30.458Z,44.9
2016-12-03T02:15:30.862Z,45.1
2016-12-03T02:16:31.262Z,45
2016-12-03T02:17:31.655Z,45.1
2016-12-03T02:18:32.044Z,44.8
2016-12-03T02:19:32.440Z,44.3
2016-12-03T02:20:32.843Z,44.4
2016-12-03T02:21:33.229Z,44.8
2016-12-03T02:22:33.627Z,44.4
2016-12-03T02:23:34.020Z,44.8
2016-12-03T02:24:34.405Z,44.6
2016-12-03T02:25:34.793Z,44.7
2016-12-03T02:26:35.192Z,44.7
2016-12-03T02:27:35.595Z,44.8
2016-12-03T02:28:35.999Z,44.8
2016-12-03T02:29:36.402Z,44.9
2016-12-03T02:30:36.789Z,44.8
2016-12-03T02:31:37.173Z,45.2
2016-12-03T02:32:37.560Z,44.6
2016-12-03T02:33:37.944Z,44.9
2016-12-03T02:34:38.343Z,45.2
2016-12-03T02:35:38.739Z,45
2016-12-03T02:36:39.139Z,45.1
2016-12-03T02:37:39.547Z,44.9
2016-12-03T02:38:39.941Z,44.8
2016-12-03T02:39:40.333Z,44.8
2016-12-03T02:40:40.717Z,45
2016-12-03T02:41:41.099Z,44.6
2016-12-03T02:42:41.496Z,44.8
2016-12-03T02:43:41.902Z,44.6
2016-12-03T02:44:42.304Z,44.6
2016-12-03T02:45:42.708Z,44.5
2016-12-03T02:46:43.097Z,44.5
2016-12-03T02:47:43.476Z,44.7
2016-12-03T02:48:43.872Z,44.8
2016-12-03T02:49:44.266Z,44.4
2016-12-03T02:50:44.657Z,45.1
2016-12-03T02:51:45.050Z,44.8
2016-12-03T02:52:45.438Z,44.7
2016-12-03T02:53:45.831Z,44.7
2016-12-03T02:54:46.220Z,44.8
2016-12-03T02:55:46.618Z,44.9
2016-12-03T02:56:47.012Z,45
2016-12-03T02:57:47.415Z,44.4
2016-12-03T02:58:47.808Z,44.7
2016-12-03T02:59:48.222Z,44.7
2016-12-03T03:00:48.606Z,44.4
2016-12-03T03:01:48.990Z,44.4
2016-12-03T03:02:49.383Z,44.5
2016-12-03T03:03:49.784Z,44.4
2016-12-03T03:04:50.182Z,44.6
2016-12-03T03:05:50.588Z,44.6
2016-12-03T03:06:50.981Z,44.4
2016-12-03T03:07:51.373Z,44.8
2016-12-03T03:08:51.764Z,44.7
2016-12-03T03:09:52.154Z,45.1
2016-12-03T03:10:52.546Z,44.7
2016-12-03T03:11:52.954Z,45
2016-12-03T03:12:53.352Z,44.8
2016-12-03T03:13:53.754Z,45.1
2016-12-03T03:14:54.148Z,45.1
2016-12-03T03:15:54.532Z,44.6
2016-12-03T03:16:54.920Z,44.5
2016-12-03T03:17:55.313Z,44.3
2016-12-03T03:18:55.706Z,44.5
2016-12-03T03:19:56.113Z,44.3
2016-12-03T03:20:56.510Z,44.3
2016-12-03T03:21:56.910Z,44.7
2016-12-03T03:22:57.302Z,44.8
2016-12-03T03:23:57.691Z,44.7
2016-12-03T03:24:58.085Z,44.8
2016-12-03T03:25:58.472Z,44.8
2016-12-03T03:26:58.895Z,45.1
2016-12-03T03:27:59.294Z,44.6
2016-12-03T03:28:59.688Z,45.1
2016-12-03T03:30:00.089Z,45.1
2016-12-03T03:31:00.485Z,44.6
2016-12-03T03:32:00.876Z,44.5
2016-12-03T03:33:01.261Z,44.6
2016-12-03T03:34:01.648Z,44.6
2016-12-03T03:35:02.040Z,44.5
2016-12-03T03:36:02.439Z,44.7
2016-12-03T03:37:02.845Z,44.6
2016-12-03T03:38:03.241Z,44.4
2016-12-03T03:39:03.629Z,44.9
2016-12-03T03:40:04.018Z,44.8
2016-12-03T03:41:04.409Z,44.7
2016-12-03T03:42:04.800Z,44.4
2016-12-03T03:43:05.205Z,44.2
2016-12-03T03:44:05.604Z,45
2016-12-03T03:45:06.001Z,44.8
2016-12-03T03:46:06.407Z,44.8
2016-12-03T03:47:06.799Z,44.8
2016-12-03T03:48:07.188Z,44.7
2016-12-03T03:49:07.576Z,44.6
2016-12-03T03:50:07.966Z,45
2016-12-03T03:51:08.360Z,45.1
2016-12-03T03:52:08.755Z,45.2
2016-12-03T03:53:09.159Z,44.9
2016-12-03T03:54:09.549Z,44.6
2016-12-03T03:55:09.946Z,44.7
2016-12-03T03:56:10.343Z,44.6
2016-12-03T03:57:10.739Z,44.6
2016-12-03T03:58:11.133Z,44.3
2016-12-03T03:59:11.515Z,44.6
2016-12-03T04:00:11.905Z,44.4
2016-12-03T04:01:12.318Z,44.5
2016-12-03T04:02:12.704Z,44.6
2016-12-03T04:03:13.097Z,44.4
2016-12-03T04:04:13.507Z,44.7
2016-12-03T04:05:13.906Z,45
2016-12-03T04:06:14.313Z,45.1
2016-12-03T04:07:14.712Z,45.1
2016-12-03T04:08:15.098Z,45.1
2016-12-03T04:09:15.478Z,44.6
2016-12-03T04:10:15.868Z,44.6
2016-12-03T04:11:16.267Z,44.6
2016-12-03T04:12:16.669Z,44.8
2016-12-03T04:13:17.070Z,44.5
2016-12-03T04:14:17.467Z,45.1
2016-12-03T04:15:17.860Z,44.5
2016-12-03T04:16:18.253Z,44.6
2016-12-03T04:17:18.978Z,44.6
2016-12-03T04:18:19.364Z,44.5
2016-12-03T04:19:19.756Z,44.8
2016-12-03T04:20:20.157Z,44.8
2016-12-03T04:21:20.552Z,45.1
2016-12-03T04:22:20.960Z,44.6
2016-12-03T04:23:21.351Z,44.4
2016-12-03T04:24:21.733Z,44.7
2016-12-03T04:25:22.122Z,44.5
2016-12-03T04:26:22.515Z,44.5
2016-12-03T04:27:22.911Z,44.5
2016-12-03T04:28:23.304Z,44.5
2016-12-03T04:29:23.694Z,44.8
2016-12-03T04:30:24.083Z,44.7
2016-12-03T04:31:24.470Z,44.5
2016-12-03T04:32:24.862Z,44.5
2016-12-03T04:33:25.261Z,44.8
2016-12-03T04:34:25.662Z,44.8
2016-12-03T04:35:26.052Z,45.2
2016-12-03T04:36:26.433Z,44.7
2016-12-03T04:37:26.820Z,45.3
2016-12-03T04:38:27.205Z,44.8
2016-12-03T04:39:27.605Z,44.5
2016-12-03T04:40:28.017Z,44.3
2016-12-03T04:41:28.419Z,44.3
2016-12-03T04:42:28.816Z,44
2016-12-03T04:43:29.306Z,44
2016-12-03T04:44:29.701Z,44.1
2016-12-03T04:45:30.089Z,44.3
2016-12-03T04:46:30.488Z,44.6
2016-12-03T04:47:30.881Z,44.3
2016-12-03T04:48:31.293Z,44.4
2016-12-03T04:49:31.700Z,44.4
2016-12-03T04:50:32.110Z,44.7
2016-12-03T04:51:32.505Z,44.8
2016-12-03T04:52:32.896Z,44.5
2016-12-03T04:53:33.288Z,44.8
2016-12-03T04:54:33.674Z,44.7
2016-12-03T04:55:34.068Z,44.4
2016-12-03T04:56:34.469Z,44.2
2016-12-03T04:57:34.863Z,44
2016-12-03T04:58:35.252Z,44.2
2016-12-03T04:59:35.647Z,43.7
2016-12-03T05:00:36.044Z,44.3
2016-12-03T05:01:36.442Z,44.2
2016-12-03T05:02:36.843Z,44.3
2016-12-03T05:03:37.235Z,44.5
2016-12-03T05:04:37.622Z,44.3
2016-12-03T05:05:38.007Z,44.6
2016-12-03T05:06:38.389Z,44.5
2016-12-03T05:07:38.781Z,44.4
2016-12-03T05:08:39.184Z,44.4
2016-12-03T05:09:39.618Z,44.4
2016-12-03T05:10:40.016Z,44.4
2016-12-03T05:11:40.407Z,44.8
2016-12-03T05:12:40.800Z,44.4
2016-12-03T05:13:41.292Z,44.5
2016-12-03T05:14:41.683Z,44.3
2016-12-03T05:15:42.083Z,44.6
2016-12-03T05:16:42.492Z,44.4
2016-12-03T05:17:42.893Z,44.4
2016-12-03T05:18:43.290Z,44.3
2016-12-03T05:19:43.682Z,44.1
2016-12-03T05:20:44.067Z,44.3
2016-12-03T05:21:44.458Z,44.8
2016-12-03T05:22:44.848Z,44.6
2016-12-03T05:23:45.245Z,44.7
2016-12-03T05:24:45.643Z,44.7
2016-12-03T05:25:46.044Z,44.8
2016-12-03T05:26:46.441Z,44.4
2016-12-03T05:27:46.833Z,44.3
2016-12-03T05:28:47.222Z,44.6
2016-12-03T05:29:47.613Z,44.7
2016-12-03T05:30:48.013Z,44.3
2016-12-03T05:31:48.405Z,44.2
2016-12-03T05:32:48.793Z,44
2016-12-03T05:33:49.220Z,44.1
2016-12-03T05:34:49.605Z,44.1
2016-12-03T05:35:49.996Z,44.6
2016-12-03T05:36:50.389Z,44.4
2016-12-03T05:37:50.787Z,44.4
2016-12-03T05:38:51.191Z,44.7
2016-12-03T05:39:51.928Z,44.8
2016-12-03T05:40:52.319Z,44.4
2016-12-03T05:41:52.713Z,44.8
2016-12-03T05:42:53.095Z,44.7
2016-12-03T05:43:53.490Z,44.5
2016-12-03T05:44:53.889Z,44.5
2016-12-03T05:45:54.286Z,44.5
2016-12-03T05:46:54.682Z,44.3
2016-12-03T05:47:55.078Z,44.4
2016-12-03T05:48:55.464Z,44.1
2016-12-03T05:49:55.847Z,43.5
2016-12-03T05:50:56.236Z,43.7
2016-12-03T05:51:56.626Z,43.2
2016-12-03T05:52:57.024Z,43
2016-12-03T05:53:57.423Z,43.3
2016-12-03T05:54:57.828Z,43.2
2016-12-03T05:55:58.221Z,43.2
2016-12-03T05:56:58.608Z,43.7
2016-12-03T05:57:59.004Z,43.6
2016-12-03T05:58:59.390Z,43
2016-12-03T05:59:59.785Z,43.7
2016-12-03T06:01:00.187Z,43.2
2016-12-03T06:02:00.577Z,43.2
2016-12-03T06:03:00.964Z,43.3
2016-12-03T06:04:01.353Z,43.2
2016-12-03T06:05:01.756Z,43.3
2016-12-03T06:06:02.156Z,42.8
2016-12-03T06:07:02.556Z,43.3
2016-12-03T06:08:02.947Z,43.2
2016-12-03T06:09:03.346Z,43.4
2016-12-03T06:10:03.735Z,43.2
2016-12-03T06:11:04.125Z,43.3
2016-12-03T06:12:04.528Z,43.2
2016-12-03T06:13:04.925Z,43
2016-12-03T06:14:05.432Z,43.3
2016-12-03T06:15:05.831Z,42.9
2016-12-03T06:16:06.217Z,43.2
2016-12-03T06:17:06.607Z,43.1
2016-12-03T06:18:06.997Z,42.8
2016-12-03T06:19:07.380Z,43
2016-12-03T06:20:07.768Z,42.8
2016-12-03T06:21:08.170Z,43.2
2016-12-03T06:22:08.573Z,43.1
2016-12-03T06:23:08.972Z,43.2
2016-12-03T06:24:09.708Z,42.8
2016-12-03T06:25:10.102Z,43.1
2016-12-03T06:26:10.482Z,43
2016-12-03T06:27:10.875Z,42.9
2016-12-03T06:28:11.272Z,43.2
2016-12-03T06:29:11.664Z,42.9
2016-12-03T06:30:12.060Z,42.7
2016-12-03T06:31:12.455Z,43.1
2016-12-03T06:32:12.846Z,43.4
2016-12-03T06:33:13.238Z,43.3
2016-12-03T06:34:13.637Z,43.3
2016-12-03T06:35:14.034Z,43.7
2016-12-03T06:36:14.426Z,43.3
2016-12-03T06:37:14.809Z,43.1
2016-12-03T06:38:15.197Z,42.9
2016-12-03T06:39:15.588Z,42.7
2016-12-03T06:40:15.985Z,43
2016-12-03T06:41:16.392Z,42.9
2016-12-03T06:42:16.786Z,42.9
2016-12-03T06:43:17.176Z,43
2016-12-03T06:44:17.674Z,42.9
2016-12-03T06:45:18.061Z,42.9
2016-12-03T06:46:18.451Z,43
2016-12-03T06:47:18.840Z,43.3
2016-12-03T06:48:19.236Z,43.3
2016-12-03T06:49:19.634Z,43.3
2016-12-03T06:50:20.041Z,43.3
2016-12-03T06:51:20.443Z,42.9
2016-12-03T06:52:20.835Z,43.1
2016-12-03T06:53:21.215Z,42.8
2016-12-03T06:54:21.603Z,43.1
2016-12-03T06:55:21.988Z,43.1
2016-12-03T06:56:22.384Z,43
2016-12-03T06:57:22.797Z,42.6
2016-12-03T06:58:23.193Z,42.2
2016-12-03T06:59:23.588Z,42.5
2016-12-03T07:00:23.982Z,42.7
2016-12-03T07:01:24.373Z,42.6
2016-12-03T07:02:24.761Z,42.5
2016-12-03T07:03:25.153Z,42.7
2016-12-03T07:04:25.546Z,42.6
2016-12-03T07:05:25.950Z,42.3
2016-12-03T07:06:26.351Z,42.6
2016-12-03T07:07:26.744Z,42.7
2016-12-03T07:08:27.137Z,42.6
2016-12-03T07:09:27.536Z,42.6
2016-12-03T07:10:27.943Z,42.4
2016-12-03T07:11:28.340Z,42.7
2016-12-03T07:12:28.739Z,42.6
2016-12-03T07:13:29.125Z,42.6
2016-12-03T07:14:29.615Z,42.7
2016-12-03T07:15:30.007Z,42.8
2016-12-03T07:16:30.406Z,42.4
2016-12-03T07:17:30.807Z,43.4
2016-12-03T07:18:31.210Z,43
2016-12-03T07:19:31.765Z,42.4
2016-12-03T07:20:32.186Z,42.2
2016-12-03T07:21:32.576Z,42.3
2016-12-03T07:22:32.965Z,42
2016-12-03T07:23:33.353Z,42.2
2016-12-03T07:24:33.749Z,42.1
2016-12-03T07:25:34.156Z,42.3
2016-12-03T07:26:34.560Z,42.7
2016-12-03T07:27:34.964Z,42.4
2016-12-03T07:28:35.360Z,42.1
2016-12-03T07:29:35.747Z,41.8
2016-12-03T07:30:36.139Z,41.6
2016-12-03T07:31:36.530Z,41.8
2016-12-03T07:32:36.932Z,41.8
2016-12-03T07:33:37.328Z,41.8
2016-12-03T07:34:37.726Z,42.1
2016-12-03T07:35:38.121Z,42.2
2016-12-03T07:36:38.516Z,42.5
2016-12-03T07:37:38.911Z,42.6
2016-12-03T07:38:39.296Z,42.5
2016-12-03T07:39:39.687Z,42.7
2016-12-03T07:40:40.089Z,42.6
2016-12-03T07:41:40.487Z,42.5
2016-12-03T07:42:40.889Z,42.7
2016-12-03T07:43:41.288Z,42.5
2016-12-03T07:44:41.788Z,42.6
2016-12-03T07:45:42.188Z,42.6
2016-12-03T07:46:42.576Z,42.3
2016-12-03T07:47:42.960Z,42.7
2016-12-03T07:48:43.354Z,42.3
2016-12-03T07:49:43.761Z,42.2
2016-12-03T07:50:44.160Z,42.2
2016-12-03T07:51:44.593Z,42.2
2016-12-03T07:52:44.993Z,42.4
2016-12-03T07:53:45.386Z,42.1
2016-12-03T07:54:45.771Z,42.2
2016-12-03T07:55:46.158Z,41.6
2016-12-03T07:56:46.548Z,42
2016-12-03T07:57:46.943Z,41.7
2016-12-03T07:58:47.341Z,41.9
2016-12-03T07:59:47.736Z,41.4
2016-12-03T08:00:48.136Z,41.6
2016-12-03T08:01:48.527Z,41.6
2016-12-03T08:02:48.939Z,41.7
2016-12-03T08:03:49.329Z,41.8
2016-12-03T08:04:49.724Z,41.6
2016-12-03T08:05:50.132Z,42.1
2016-12-03T08:06:50.525Z,42.2
2016-12-03T08:07:50.935Z,42.3
2016-12-03T08:08:51.329Z,42.3
2016-12-03T08:09:51.715Z,42.5
2016-12-03T08:10:52.111Z,42
2016-12-03T08:11:52.512Z,42.5
2016-12-03T08:12:52.901Z,42.1
2016-12-03T08:13:53.294Z,42.4
2016-12-03T08:14:53.780Z,42.1
2016-12-03T08:15:54.166Z,42.2
2016-12-03T08:16:54.555Z,42.3
2016-12-03T08:17:54.955Z,42.4
2016-12-03T08:18:55.358Z,42.2
2016-12-03T08:19:55.757Z,42.5
2016-12-03T08:20:56.150Z,41.9
2016-12-03T08:21:56.540Z,42.5
2016-12-03T08:22:56.927Z,42.1
2016-12-03T08:23:57.313Z,42.2
2016-12-03T08:24:57.707Z,42.5
2016-12-03T08:25:58.107Z,41.9
2016-12-03T08:26:58.502Z,42.4
2016-12-03T08:27:58.904Z,42.5
2016-12-03T08:28:59.304Z,42.2
2016-12-03T08:29:59.694Z,41.9
2016-12-03T08:31:00.084Z,42.4
2016-12-03T08:32:00.467Z,42.6
2016-12-03T08:33:00.856Z,42.8
2016-12-03T08:34:01.262Z,42.9
2016-12-03T08:35:02.030Z,43.1
2016-12-03T08:36:02.429Z,43.3
2016-12-03T08:37:02.818Z,43.4
2016-12-03T08:38:03.212Z,43.4
2016-12-03T08:39:03.603Z,42.9
2016-12-03T08:40:03.996Z,42.9
2016-12-03T08:41:04.398Z,42.7
2016-12-03T08:42:04.794Z,42.4
2016-12-03T08:43:05.185Z,42.5
2016-12-03T08:44:05.567Z,42.4
2016-12-03T08:45:06.065Z,42.6
2016-12-03T08:46:06.469Z,42.3
2016-12-03T08:47:06.863Z,42.1
2016-12-03T08:48:07.267Z,42.6
2016-12-03T08:49:07.656Z,42.1
2016-12-03T08:50:08.042Z,42.3
2016-12-03T08:51:08.435Z,41.9
2016-12-03T08:52:08.826Z,42.6
2016-12-03T08:53:09.223Z,42.4
2016-12-03T08:54:09.617Z,42.1
2016-12-03T08:55:10.017Z,42.5
2016-12-03T08:56:10.412Z,42.7
2016-12-03T08:57:10.803Z,43.3
2016-12-03T08:58:11.192Z,43.4
2016-12-03T08:59:11.577Z,43.4
2016-12-03T09:00:11.961Z,43.3
2016-12-03T09:01:12.362Z,43
2016-12-03T09:02:12.770Z,43.2
2016-12-03T09:03:13.168Z,43.3
2016-12-03T09:04:13.573Z,43.1
2016-12-03T09:05:13.965Z,43.3
2016-12-03T09:06:14.346Z,43.3
2016-12-03T09:07:14.738Z,43.4
2016-12-03T09:08:15.130Z,43.1
2016-12-03T09:09:15.524Z,43.1
2016-12-03T09:10:15.918Z,42.9
2016-12-03T09:11:16.317Z,43.1
2016-12-03T09:12:16.713Z,42.9
2016-12-03T09:13:17.111Z,42.6
2016-12-03T09:14:17.503Z,42.5
2016-12-03T09:15:17.994Z,42.9
2016-12-03T09:16:18.387Z,43.1
2016-12-03T09:17:18.779Z,42.6
2016-12-03T09:18:19.164Z,42.6
2016-12-03T09:19:19.551Z,42.3
2016-12-03T09:20:19.936Z,42.5
2016-12-03T09:21:20.328Z,42.6
2016-12-03T09:22:20.732Z,41.9
2016-12-03T09:23:21.131Z,42
2016-12-03T09:24:21.530Z,42.3
2016-12-03T09:25:21.921Z,42.3
2016-12-03T09:26:22.307Z,41.9
2016-12-03T09:27:22.697Z,42
2016-12-03T09:28:23.087Z,42
2016-12-03T09:29:23.489Z,41.7
2016-12-03T09:30:23.897Z,42.1
2016-12-03T09:31:24.301Z,41.6
2016-12-03T09:32:24.711Z,42.1
2016-12-03T09:33:25.108Z,42.1
2016-12-03T09:34:25.495Z,42
2016-12-03T09:35:25.880Z,42.3
2016-12-03T09:36:26.266Z,42.5
2016-12-03T09:37:26.657Z,41.8
2016-12-03T09:38:27.059Z,41.9
2016-12-03T09:39:27.484Z,42
2016-12-03T09:40:27.889Z,42.2
2016-12-03T09:41:28.284Z,41.9
2016-12-03T09:42:28.698Z,41.9
2016-12-03T09:43:29.088Z,41.7
2016-12-03T09:44:29.483Z,41.7
2016-12-03T09:45:29.983Z,41.7
2016-12-03T09:46:30.383Z,41.6
2016-12-03T09:47:30.777Z,41.8
2016-12-03T09:48:31.170Z,41.9
2016-12-03T09:49:31.570Z,42.2
2016-12-03T09:50:31.967Z,41.9
2016-12-03T09:51:32.365Z,41.9
2016-12-03T09:52:32.760Z,41.5
2016-12-03T09:53:33.149Z,41.5
2016-12-03T09:54:33.539Z,42
2016-12-03T09:55:33.933Z,41.7
2016-12-03T09:56:34.321Z,41.9
2016-12-03T09:57:34.716Z,41.7
2016-12-03T09:58:35.122Z,41.6
2016-12-03T09:59:35.527Z,41.7
2016-12-03T10:00:35.928Z,41.8
2016-12-03T10:01:36.327Z,41.8
2016-12-03T10:02:36.716Z,41.8
2016-12-03T10:03:37.102Z,41.8
2016-12-03T10:04:37.496Z,42.1
2016-12-03T10:05:37.891Z,41.7
2016-12-03T10:06:38.290Z,41.8
2016-12-03T10:07:38.694Z,41.8
2016-12-03T10:08:39.092Z,41.8
2016-12-03T10:09:39.479Z,41.8
2016-12-03T10:10:40.171Z,41.9
2016-12-03T10:11:40.565Z,42
2016-12-03T10:12:40.954Z,41.5
2016-12-03T10:13:41.344Z,41.4
2016-12-03T10:14:41.747Z,41.8
2016-12-03T10:15:42.149Z,41.9
2016-12-03T10:16:42.557Z,41.8
2016-12-03T10:17:42.961Z,41.6
2016-12-03T10:18:43.349Z,41.8
2016-12-03T10:19:43.757Z,41.8
2016-12-03T10:20:44.165Z,42
2016-12-03T10:21:44.559Z,41.9
2016-12-03T10:22:44.945Z,42.1
2016-12-03T10:23:45.340Z,41.8
2016-12-03T10:24:45.732Z,41.9
2016-12-03T10:25:46.126Z,41.9
2016-12-03T10:26:46.525Z,41.7
2016-12-03T10:27:46.920Z,41.8
2016-12-03T10:28:47.319Z,41.4
2016-12-03T10:29:47.714Z,41.6
2016-12-03T10:30:48.100Z,41.9
2016-12-03T10:31:48.487Z,41.9
2016-12-03T10:32:48.876Z,41.7
2016-12-03T10:33:49.268Z,42.1
2016-12-03T10:34:49.665Z,42
2016-12-03T10:35:50.070Z,42.1
2016-12-03T10:36:50.471Z,41.6
2016-12-03T10:37:50.868Z,41.8
2016-12-03T10:38:51.257Z,41.9
2016-12-03T10:39:51.655Z,42.2
2016-12-03T10:40:52.044Z,42.2
2016-12-03T10:41:52.442Z,42.1
2016-12-03T10:42:52.841Z,42.3
2016-12-03T10:43:53.248Z,42.2
2016-12-03T10:44:53.644Z,42.5
2016-12-03T10:45:54.043Z,42.3
2016-12-03T10:46:54.435Z,42.1
2016-12-03T10:47:54.822Z,42.3
2016-12-03T10:48:55.209Z,42.2
2016-12-03T10:49:55.604Z,42.3
2016-12-03T10:50:56.001Z,42.7
2016-12-03T10:51:56.394Z,42.3
2016-12-03T10:52:56.781Z,42.3
2016-12-03T10:53:57.174Z,42.2
2016-12-03T10:54:57.574Z,42.5
2016-12-03T10:55:57.999Z,42.6
2016-12-03T10:56:58.396Z,42.4
2016-12-03T10:57:58.792Z,42.4
2016-12-03T10:58:59.181Z,42.5
2016-12-03T10:59:59.572Z,42.5
2016-12-03T11:00:59.961Z,42.6
2016-12-03T11:02:00.357Z,42.7
2016-12-03T11:03:00.768Z,42.5
2016-12-03T11:04:01.173Z,42.4
2016-12-03T11:05:01.578Z,42.5
2016-12-03T11:06:01.978Z,42.7
2016-12-03T11:07:02.366Z,42.5
2016-12-03T11:08:02.752Z,42.7
2016-12-03T11:09:03.138Z,42.6
2016-12-03T11:10:03.533Z,42.6
2016-12-03T11:11:03.931Z,42.3
2016-12-03T11:12:04.327Z,42
2016-12-03T11:13:04.722Z,42.1
2016-12-03T11:14:05.116Z,42.3
2016-12-03T11:15:05.504Z,42.3
2016-12-03T11:16:05.894Z,42
2016-12-03T11:17:06.283Z,42.1
2016-12-03T11:18:06.678Z,42.3
2016-12-03T11:19:07.078Z,42.4
2016-12-03T11:20:07.481Z,42
2016-12-03T11:21:07.888Z,42.6
2016-12-03T11:22:08.285Z,42.4
2016-12-03T11:23:08.674Z,42.3
2016-12-03T11:24:09.070Z,42.3
2016-12-03T11:25:09.465Z,42.1
2016-12-03T11:26:09.860Z,42
2016-12-03T11:27:10.252Z,42.2
2016-12-03T11:28:10.641Z,42.5
2016-12-03T11:29:11.036Z,42.4
2016-12-03T11:30:11.425Z,42.4
2016-12-03T11:31:11.822Z,42.1
2016-12-03T11:32:12.221Z,42.4
2016-12-03T11:33:12.623Z,42.5
2016-12-03T11:34:13.011Z,42.6
2016-12-03T11:35:13.400Z,42.4
2016-12-03T11:36:13.791Z,42.6
2016-12-03T11:37:14.174Z,42.2
2016-12-03T11:38:14.570Z,42.2
2016-12-03T11:39:14.976Z,42.2
2016-12-03T11:40:15.376Z,42.2
2016-12-03T11:41:18.768Z,42.5
2016-12-03T11:42:20.021Z,42.4
2016-12-03T11:43:20.410Z,42.4
2016-12-03T11:44:20.796Z,42.3
2016-12-03T11:45:21.192Z,42
2016-12-03T11:46:21.584Z,41.9
2016-12-03T11:47:21.983Z,42.3
2016-12-03T11:48:22.383Z,42.5
2016-12-03T11:49:22.787Z,42.5
2016-12-03T11:50:23.177Z,42.4
2016-12-03T11:51:23.560Z,42.4
2016-12-03T11:52:23.954Z,42.3
2016-12-03T11:53:24.337Z,42.4
2016-12-03T11:54:24.733Z,42.2
2016-12-03T11:55:25.137Z,42.5
2016-12-03T11:56:25.537Z,42.5
2016-12-03T11:57:25.936Z,42.5
2016-12-03T11:58:26.324Z,42.2
2016-12-03T11:59:26.715Z,42.4
2016-12-03T12:00:27.106Z,42.1
2016-12-03T12:01:27.497Z,42.2
2016-12-03T12:02:27.907Z,42.2
2016-12-03T12:03:28.310Z,41.9
2016-12-03T12:04:28.709Z,41.8
2016-12-03T12:05:29.111Z,41.9
2016-12-03T12:06:29.510Z,42
2016-12-03T12:07:29.899Z,42
2016-12-03T12:08:30.284Z,42.4
2016-12-03T12:09:30.695Z,42.5
2016-12-03T12:10:31.085Z,42.3
2016-12-03T12:11:31.492Z,42.1
2016-12-03T12:12:31.899Z,42.1
2016-12-03T12:13:32.296Z,42.1
2016-12-03T12:14:32.686Z,42.1
2016-12-03T12:15:33.077Z,42.2
2016-12-03T12:16:33.468Z,41.6
2016-12-03T12:17:33.859Z,42.1
2016-12-03T12:18:34.262Z,42.1
2016-12-03T12:19:34.670Z,42.1
2016-12-03T12:20:35.426Z,42.1
2016-12-03T12:21:35.880Z,42.4
2016-12-03T12:22:36.277Z,42.2
2016-12-03T12:23:36.665Z,42.2
2016-12-03T12:24:37.052Z,41.9
2016-12-03T12:25:37.445Z,41.9
2016-12-03T12:26:37.842Z,41.9
2016-12-03T12:27:38.240Z,42.2
2016-12-03T12:28:38.635Z,42.2
2016-12-03T12:29:39.023Z,42.3
2016-12-03T12:30:39.422Z,42
2016-12-03T12:31:39.819Z,42.5
2016-12-03T12:32:40.214Z,42.6
2016-12-03T12:33:40.618Z,42.4
2016-12-03T12:34:41.012Z,42.4
2016-12-03T12:35:41.402Z,42.7
2016-12-03T12:36:41.791Z,42.5
2016-12-03T12:37:42.181Z,42.5
2016-12-03T12:38:42.572Z,42.7
2016-12-03T12:39:42.980Z,42.5
2016-12-03T12:40:43.389Z,42.7
2016-12-03T12:41:43.792Z,42.2
2016-12-03T12:42:44.193Z,42.6
2016-12-03T12:43:44.579Z,42.7
2016-12-03T12:44:44.964Z,42.7
2016-12-03T12:45:45.354Z,42.4
2016-12-03T12:46:45.750Z,42.4
2016-12-03T12:47:46.168Z,42.8
2016-12-03T12:48:46.570Z,42.7
2016-12-03T12:49:46.975Z,42.5
2016-12-03T12:50:47.373Z,42.6
2016-12-03T12:51:47.761Z,42.4
2016-12-03T12:52:48.154Z,42.4
2016-12-03T12:53:48.545Z,42.2
2016-12-03T12:54:48.937Z,42.5
2016-12-03T12:55:49.336Z,42.2
2016-12-03T12:56:49.742Z,42.1
2016-12-03T12:57:50.142Z,42.3
2016-12-03T12:58:50.537Z,42.1
2016-12-03T12:59:50.933Z,42.2
2016-12-03T13:00:51.331Z,42
2016-12-03T13:01:51.731Z,42.1
2016-12-03T13:02:52.127Z,42.1
2016-12-03T13:03:52.545Z,42.2
2016-12-03T13:04:52.935Z,42
2016-12-03T13:05:53.327Z,41.9
2016-12-03T13:06:53.723Z,41.9
2016-12-03T13:07:54.119Z,42.1
2016-12-03T13:08:54.520Z,41.9
2016-12-03T13:09:54.921Z,41.9
2016-12-03T13:10:55.317Z,41.9
2016-12-03T13:11:55.704Z,41.5
2016-12-03T13:12:56.096Z,41.7
2016-12-03T13:13:56.482Z,41.5
2016-12-03T13:14:56.876Z,41.4
2016-12-03T13:15:57.278Z,41.6
2016-12-03T13:16:57.677Z,41.6
2016-12-03T13:17:58.080Z,41.5
2016-12-03T13:18:58.473Z,41.8
2016-12-03T13:19:58.860Z,41.8
2016-12-03T13:20:59.248Z,41.9
2016-12-03T13:21:59.634Z,41.9
2016-12-03T13:23:00.033Z,41.8
2016-12-03T13:24:00.428Z,41.8
2016-12-03T13:25:00.825Z,41.6
2016-12-03T13:26:01.226Z,41.7
2016-12-03T13:27:01.622Z,41.5
2016-12-03T13:28:02.016Z,41.5